sensor_id;sensor_type;location;lat;lon;timestamp;temperature;humidity
57753;DHT22;43583;53.132;6.574;2023-02-28T00:00:23;4.00;99.90
57753;DHT22;43583;53.132;6.574;2023-02-28T00:02:49;4.00;99.90
57753;DHT22;43583;53.132;6.574;2023-02-28T00:05:17;4.00;99.90
57753;DHT22;43583;53.132;6.574;2023-02-28T00:07:43;4.00;99.90
57753;DHT22;43583;53.132;6.574;2023-02-28T00:10:11;4.00;99.90
57753;DHT22;43583;53.132;6.574;2023-02-28T00:12:38;4.00;99.90
57753;DHT22;43583;53.132;6.574;2023-02-28T00:15:08;4.00;99.90
57753;DHT22;43583;53.132;6.574;2023-02-28T00:17:35;4.00;99.90
57753;DHT22;43583;53.132;6.574;2023-02-28T00:20:00;4.00;99.90
57753;DHT22;43583;53.132;6.574;2023-02-28T00:22:30;4.10;99.90
57753;DHT22;43583;53.132;6.574;2023-02-28T00:24:56;4.10;99.90
57753;DHT22;43583;53.132;6.574;2023-02-28T00:27:21;4.10;99.90
57753;DHT22;43583;53.132;6.574;2023-02-28T00:29:47;4.00;99.90
57753;DHT22;43583;53.132;6.574;2023-02-28T00:32:13;4.10;99.90
57753;DHT22;43583;53.132;6.574;2023-02-28T00:34:38;4.00;99.90
57753;DHT22;43583;53.132;6.574;2023-02-28T00:37:06;4.00;99.90
57753;DHT22;43583;53.132;6.574;2023-02-28T00:39:34;4.00;99.90
57753;DHT22;43583;53.132;6.574;2023-02-28T00:41:59;4.00;99.90
57753;DHT22;43583;53.132;6.574;2023-02-28T00:44:25;3.90;99.90
57753;DHT22;43583;53.132;6.574;2023-02-28T00:46:50;3.90;99.90
57753;DHT22;43583;53.132;6.574;2023-02-28T00:49:17;3.80;99.90
57753;DHT22;43583;53.132;6.574;2023-02-28T00:51:42;3.80;99.90
57753;DHT22;43583;53.132;6.574;2023-02-28T00:54:08;3.80;99.90
57753;DHT22;43583;53.132;6.574;2023-02-28T00:56:34;3.80;99.90
57753;DHT22;43583;53.132;6.574;2023-02-28T00:58:59;3.80;99.90
57753;DHT22;43583;53.132;6.574;2023-02-28T01:01:25;3.80;99.90
57753;DHT22;43583;53.132;6.574;2023-02-28T01:03:50;3.80;99.90
57753;DHT22;43583;53.132;6.574;2023-02-28T01:06:16;3.80;99.90
57753;DHT22;43583;53.132;6.574;2023-02-28T01:08:41;3.90;99.90
57753;DHT22;43583;53.132;6.574;2023-02-28T01:11:12;3.90;99.90
57753;DHT22;43583;53.132;6.574;2023-02-28T01:13:38;3.90;99.90
57753;DHT22;43583;53.132;6.574;2023-02-28T01:16:04;3.90;99.90
57753;DHT22;43583;53.132;6.574;2023-02-28T01:18:29;3.90;99.90
57753;DHT22;43583;53.132;6.574;2023-02-28T01:20:55;3.90;99.90
57753;DHT22;43583;53.132;6.574;2023-02-28T01:23:22;3.90;99.90
57753;DHT22;43583;53.132;6.574;2023-02-28T01:25:50;4.00;99.90
57753;DHT22;43583;53.132;6.574;2023-02-28T01:28:16;3.90;99.90
57753;DHT22;43583;53.132;6.574;2023-02-28T01:30:41;4.00;99.90
57753;DHT22;43583;53.132;6.574;2023-02-28T01:33:07;4.00;99.90
57753;DHT22;43583;53.132;6.574;2023-02-28T01:35:36;4.00;99.90
57753;DHT22;43583;53.132;6.574;2023-02-28T01:38:02;3.90;99.90
57753;DHT22;43583;53.132;6.574;2023-02-28T01:40:28;3.90;99.90
57753;DHT22;43583;53.132;6.574;2023-02-28T01:42:53;3.90;99.90
57753;DHT22;43583;53.132;6.574;2023-02-28T01:45:26;3.90;99.90
57753;DHT22;43583;53.132;6.574;2023-02-28T01:47:56;4.00;99.90
57753;DHT22;43583;53.132;6.574;2023-02-28T01:50:27;4.00;99.90
57753;DHT22;43583;53.132;6.574;2023-02-28T01:52:55;4.00;99.90
57753;DHT22;43583;53.132;6.574;2023-02-28T01:55:23;4.00;99.90
57753;DHT22;43583;53.132;6.574;2023-02-28T01:57:56;4.00;99.90
57753;DHT22;43583;53.132;6.574;2023-02-28T02:00:24;4.00;99.90
57753;DHT22;43583;53.132;6.574;2023-02-28T02:02:57;4.00;99.90
57753;DHT22;43583;53.132;6.574;2023-02-28T02:05:26;4.00;99.90
57753;DHT22;43583;53.132;6.574;2023-02-28T02:07:56;4.00;99.90
57753;DHT22;43583;53.132;6.574;2023-02-28T02:10:47;4.00;99.90
57753;DHT22;43583;53.132;6.574;2023-02-28T02:13:30;4.00;99.90
57753;DHT22;43583;53.132;6.574;2023-02-28T02:16:28;4.00;99.90
57753;DHT22;43583;53.132;6.574;2023-02-28T02:18:58;4.00;99.90
57753;DHT22;43583;53.132;6.574;2023-02-28T02:33:11;4.00;99.90
57753;DHT22;43583;53.132;6.574;2023-02-28T02:36:19;4.00;99.90
57753;DHT22;43583;53.132;6.574;2023-02-28T02:38:40;4.00;99.90
57753;DHT22;43583;53.132;6.574;2023-02-28T02:41:27;4.00;99.90
57753;DHT22;43583;53.132;6.574;2023-02-28T02:44:04;4.00;99.90
57753;DHT22;43583;53.132;6.574;2023-02-28T02:49:00;4.00;99.90
57753;DHT22;43583;53.132;6.574;2023-02-28T02:51:27;4.00;99.90
57753;DHT22;43583;53.132;6.574;2023-02-28T02:54:00;4.00;99.90
57753;DHT22;43583;53.132;6.574;2023-02-28T02:56:28;4.00;99.90
57753;DHT22;43583;53.132;6.574;2023-02-28T02:59:01;4.00;99.90
57753;DHT22;43583;53.132;6.574;2023-02-28T03:01:29;4.00;99.90
57753;DHT22;43583;53.132;6.574;2023-02-28T03:03:59;4.00;99.90
57753;DHT22;43583;53.132;6.574;2023-02-28T03:06:26;4.00;99.90
57753;DHT22;43583;53.132;6.574;2023-02-28T03:08:52;4.00;99.90
57753;DHT22;43583;53.132;6.574;2023-02-28T03:11:18;4.00;99.90
57753;DHT22;43583;53.132;6.574;2023-02-28T03:17:14;4.00;99.90
57753;DHT22;43583;53.132;6.574;2023-02-28T03:22:57;4.00;99.90
57753;DHT22;43583;53.132;6.574;2023-02-28T03:25:27;4.00;99.90
57753;DHT22;43583;53.132;6.574;2023-02-28T03:29:04;3.90;99.90
57753;DHT22;43583;53.132;6.574;2023-02-28T03:31:13;3.90;99.90
57753;DHT22;43583;53.132;6.574;2023-02-28T03:34:29;3.90;99.90
57753;DHT22;43583;53.132;6.574;2023-02-28T03:36:57;3.90;99.90
57753;DHT22;43583;53.132;6.574;2023-02-28T03:39:33;3.90;99.90
57753;DHT22;43583;53.132;6.574;2023-02-28T03:42:19;3.80;99.90
57753;DHT22;43583;53.132;6.574;2023-02-28T03:44:47;3.90;99.90
57753;DHT22;43583;53.132;6.574;2023-02-28T03:47:19;3.80;99.90
57753;DHT22;43583;53.132;6.574;2023-02-28T03:49:50;3.80;99.90
57753;DHT22;43583;53.132;6.574;2023-02-28T03:52:21;3.80;99.90
57753;DHT22;43583;53.132;6.574;2023-02-28T03:54:51;3.80;99.90
57753;DHT22;43583;53.132;6.574;2023-02-28T04:00:19;3.80;99.90
57753;DHT22;43583;53.132;6.574;2023-02-28T04:02:45;3.80;99.90
57753;DHT22;43583;53.132;6.574;2023-02-28T04:05:11;3.80;99.90
57753;DHT22;43583;53.132;6.574;2023-02-28T04:07:36;3.80;99.90
57753;DHT22;43583;53.132;6.574;2023-02-28T04:10:03;3.70;99.90
57753;DHT22;43583;53.132;6.574;2023-02-28T04:12:29;3.70;99.90
57753;DHT22;43583;53.132;6.574;2023-02-28T04:14:55;3.70;99.90
57753;DHT22;43583;53.132;6.574;2023-02-28T04:17:20;3.60;99.90
57753;DHT22;43583;53.132;6.574;2023-02-28T04:19:46;3.60;99.90
57753;DHT22;43583;53.132;6.574;2023-02-28T04:22:11;3.60;99.90
57753;DHT22;43583;53.132;6.574;2023-02-28T04:24:37;3.60;99.90
57753;DHT22;43583;53.132;6.574;2023-02-28T04:27:07;3.50;99.90
57753;DHT22;43583;53.132;6.574;2023-02-28T04:29:33;3.50;99.90
57753;DHT22;43583;53.132;6.574;2023-02-28T04:32:00;3.40;99.90
57753;DHT22;43583;53.132;6.574;2023-02-28T04:34:28;3.40;99.90
57753;DHT22;43583;53.132;6.574;2023-02-28T04:36:56;3.40;99.90
57753;DHT22;43583;53.132;6.574;2023-02-28T04:39:23;3.40;99.90
57753;DHT22;43583;53.132;6.574;2023-02-28T04:41:49;3.30;99.90
57753;DHT22;43583;53.132;6.574;2023-02-28T04:44:15;3.30;99.90
57753;DHT22;43583;53.132;6.574;2023-02-28T04:46:41;3.30;99.90
57753;DHT22;43583;53.132;6.574;2023-02-28T04:49:08;3.30;99.90
57753;DHT22;43583;53.132;6.574;2023-02-28T04:51:35;3.30;99.90
57753;DHT22;43583;53.132;6.574;2023-02-28T04:54:00;3.30;99.90
57753;DHT22;43583;53.132;6.574;2023-02-28T04:56:26;3.30;99.90
57753;DHT22;43583;53.132;6.574;2023-02-28T04:58:51;3.30;99.90
57753;DHT22;43583;53.132;6.574;2023-02-28T05:01:29;3.30;99.90
57753;DHT22;43583;53.132;6.574;2023-02-28T05:03:57;3.30;99.90
57753;DHT22;43583;53.132;6.574;2023-02-28T05:06:24;3.30;99.90
57753;DHT22;43583;53.132;6.574;2023-02-28T05:08:51;3.30;99.90
57753;DHT22;43583;53.132;6.574;2023-02-28T05:11:19;3.30;99.90
57753;DHT22;43583;53.132;6.574;2023-02-28T05:13:46;3.20;99.90
57753;DHT22;43583;53.132;6.574;2023-02-28T05:16:12;3.30;99.90
57753;DHT22;43583;53.132;6.574;2023-02-28T05:18:38;3.20;99.90
57753;DHT22;43583;53.132;6.574;2023-02-28T05:21:04;3.20;99.90
57753;DHT22;43583;53.132;6.574;2023-02-28T05:23:30;3.20;99.90
57753;DHT22;43583;53.132;6.574;2023-02-28T05:25:55;3.20;99.90
57753;DHT22;43583;53.132;6.574;2023-02-28T05:28:21;3.20;99.90
57753;DHT22;43583;53.132;6.574;2023-02-28T05:30:47;3.20;99.90
57753;DHT22;43583;53.132;6.574;2023-02-28T05:33:13;3.20;99.90
57753;DHT22;43583;53.132;6.574;2023-02-28T05:35:40;3.20;99.90
57753;DHT22;43583;53.132;6.574;2023-02-28T05:38:06;3.20;99.90
57753;DHT22;43583;53.132;6.574;2023-02-28T05:40:32;3.20;99.90
57753;DHT22;43583;53.132;6.574;2023-02-28T05:42:57;3.20;99.90
57753;DHT22;43583;53.132;6.574;2023-02-28T05:45:23;3.20;99.90
57753;DHT22;43583;53.132;6.574;2023-02-28T05:47:48;3.20;99.90
57753;DHT22;43583;53.132;6.574;2023-02-28T05:50:14;3.20;99.90
57753;DHT22;43583;53.132;6.574;2023-02-28T05:52:40;3.20;99.90
57753;DHT22;43583;53.132;6.574;2023-02-28T05:55:06;3.20;99.90
57753;DHT22;43583;53.132;6.574;2023-02-28T05:57:32;3.20;99.90
57753;DHT22;43583;53.132;6.574;2023-02-28T05:59:57;3.10;99.90
57753;DHT22;43583;53.132;6.574;2023-02-28T06:02:23;3.20;99.90
57753;DHT22;43583;53.132;6.574;2023-02-28T06:04:49;3.10;99.90
57753;DHT22;43583;53.132;6.574;2023-02-28T06:07:14;3.10;99.90
57753;DHT22;43583;53.132;6.574;2023-02-28T06:09:40;3.10;99.90
57753;DHT22;43583;53.132;6.574;2023-02-28T06:12:07;3.10;99.90
57753;DHT22;43583;53.132;6.574;2023-02-28T06:14:35;3.10;99.90
57753;DHT22;43583;53.132;6.574;2023-02-28T06:17:01;3.00;99.90
57753;DHT22;43583;53.132;6.574;2023-02-28T06:19:27;3.00;99.90
57753;DHT22;43583;53.132;6.574;2023-02-28T06:21:54;3.00;99.90
57753;DHT22;43583;53.132;6.574;2023-02-28T06:24:21;3.00;99.90
57753;DHT22;43583;53.132;6.574;2023-02-28T06:26:47;2.90;99.90
57753;DHT22;43583;53.132;6.574;2023-02-28T06:29:13;2.90;99.90
57753;DHT22;43583;53.132;6.574;2023-02-28T06:31:43;2.90;99.90
57753;DHT22;43583;53.132;6.574;2023-02-28T06:34:09;2.90;99.90
57753;DHT22;43583;53.132;6.574;2023-02-28T06:36:37;2.80;99.90
57753;DHT22;43583;53.132;6.574;2023-02-28T06:39:03;2.80;99.90
57753;DHT22;43583;53.132;6.574;2023-02-28T06:41:28;2.80;99.90
57753;DHT22;43583;53.132;6.574;2023-02-28T06:43:54;2.80;99.90
57753;DHT22;43583;53.132;6.574;2023-02-28T06:46:20;2.80;99.90
57753;DHT22;43583;53.132;6.574;2023-02-28T06:48:46;2.80;99.90
57753;DHT22;43583;53.132;6.574;2023-02-28T06:51:18;2.80;99.90
57753;DHT22;43583;53.132;6.574;2023-02-28T06:53:45;2.80;99.90
57753;DHT22;43583;53.132;6.574;2023-02-28T06:56:13;2.80;99.90
57753;DHT22;43583;53.132;6.574;2023-02-28T06:58:40;2.80;99.90
57753;DHT22;43583;53.132;6.574;2023-02-28T07:01:06;2.70;99.90
57753;DHT22;43583;53.132;6.574;2023-02-28T07:03:32;2.80;99.90
57753;DHT22;43583;53.132;6.574;2023-02-28T07:05:58;2.80;99.90
57753;DHT22;43583;53.132;6.574;2023-02-28T07:08:25;2.80;99.90
57753;DHT22;43583;53.132;6.574;2023-02-28T07:10:54;2.80;99.90
57753;DHT22;43583;53.132;6.574;2023-02-28T07:13:20;2.80;99.90
57753;DHT22;43583;53.132;6.574;2023-02-28T07:16:00;2.90;99.90
57753;DHT22;43583;53.132;6.574;2023-02-28T07:18:26;2.90;99.90
57753;DHT22;43583;53.132;6.574;2023-02-28T07:20:52;2.90;99.90
57753;DHT22;43583;53.132;6.574;2023-02-28T07:23:18;2.90;99.90
57753;DHT22;43583;53.132;6.574;2023-02-28T07:25:43;2.90;99.90
57753;DHT22;43583;53.132;6.574;2023-02-28T07:28:11;2.90;99.90
57753;DHT22;43583;53.132;6.574;2023-02-28T07:30:36;3.00;99.90
57753;DHT22;43583;53.132;6.574;2023-02-28T07:33:02;2.90;99.90
57753;DHT22;43583;53.132;6.574;2023-02-28T07:35:29;3.00;99.90
57753;DHT22;43583;53.132;6.574;2023-02-28T07:37:54;3.00;99.90
57753;DHT22;43583;53.132;6.574;2023-02-28T07:40:20;3.00;99.90
57753;DHT22;43583;53.132;6.574;2023-02-28T07:42:46;3.00;99.90
57753;DHT22;43583;53.132;6.574;2023-02-28T07:45:12;3.00;99.90
57753;DHT22;43583;53.132;6.574;2023-02-28T07:47:38;3.10;99.90
57753;DHT22;43583;53.132;6.574;2023-02-28T07:50:06;3.10;99.90
57753;DHT22;43583;53.132;6.574;2023-02-28T07:52:31;3.00;99.90
57753;DHT22;43583;53.132;6.574;2023-02-28T07:54:57;3.10;99.90
57753;DHT22;43583;53.132;6.574;2023-02-28T07:57:23;3.10;99.90
57753;DHT22;43583;53.132;6.574;2023-02-28T07:59:48;3.10;99.90
57753;DHT22;43583;53.132;6.574;2023-02-28T08:02:16;3.20;99.90
57753;DHT22;43583;53.132;6.574;2023-02-28T08:04:42;3.30;99.90
57753;DHT22;43583;53.132;6.574;2023-02-28T08:07:08;3.30;99.90
57753;DHT22;43583;53.132;6.574;2023-02-28T08:09:34;3.40;99.90
57753;DHT22;43583;53.132;6.574;2023-02-28T08:12:00;3.50;99.90
57753;DHT22;43583;53.132;6.574;2023-02-28T08:14:25;3.60;99.90
57753;DHT22;43583;53.132;6.574;2023-02-28T08:16:51;3.60;99.90
57753;DHT22;43583;53.132;6.574;2023-02-28T08:19:17;3.70;99.90
57753;DHT22;43583;53.132;6.574;2023-02-28T08:21:42;3.90;99.90
57753;DHT22;43583;53.132;6.574;2023-02-28T08:24:08;4.00;99.90
57753;DHT22;43583;53.132;6.574;2023-02-28T08:26:33;4.10;99.90
57753;DHT22;43583;53.132;6.574;2023-02-28T08:28:59;4.10;99.90
57753;DHT22;43583;53.132;6.574;2023-02-28T08:31:25;4.10;99.90
57753;DHT22;43583;53.132;6.574;2023-02-28T08:33:50;4.10;99.90
57753;DHT22;43583;53.132;6.574;2023-02-28T08:36:18;4.20;99.90
57753;DHT22;43583;53.132;6.574;2023-02-28T08:38:44;4.30;99.90
57753;DHT22;43583;53.132;6.574;2023-02-28T08:41:12;4.30;99.90
57753;DHT22;43583;53.132;6.574;2023-02-28T08:43:39;4.30;99.90
57753;DHT22;43583;53.132;6.574;2023-02-28T08:46:05;4.30;99.90
57753;DHT22;43583;53.132;6.574;2023-02-28T08:48:33;4.30;99.90
57753;DHT22;43583;53.132;6.574;2023-02-28T08:51:07;4.40;99.90
57753;DHT22;43583;53.132;6.574;2023-02-28T08:53:35;4.50;99.90
57753;DHT22;43583;53.132;6.574;2023-02-28T08:56:06;4.60;99.90
57753;DHT22;43583;53.132;6.574;2023-02-28T08:58:33;4.70;99.90
57753;DHT22;43583;53.132;6.574;2023-02-28T09:00:59;4.70;99.90
57753;DHT22;43583;53.132;6.574;2023-02-28T09:03:26;4.80;99.90
57753;DHT22;43583;53.132;6.574;2023-02-28T09:05:59;4.90;99.90
57753;DHT22;43583;53.132;6.574;2023-02-28T09:08:26;5.40;99.90
57753;DHT22;43583;53.132;6.574;2023-02-28T09:10:52;6.00;99.90
57753;DHT22;43583;53.132;6.574;2023-02-28T09:13:18;6.30;99.90
57753;DHT22;43583;53.132;6.574;2023-02-28T09:15:44;6.60;99.90
57753;DHT22;43583;53.132;6.574;2023-02-28T09:18:10;7.00;99.90
57753;DHT22;43583;53.132;6.574;2023-02-28T09:20:40;7.40;99.90
57753;DHT22;43583;53.132;6.574;2023-02-28T09:23:10;7.80;99.90
57753;DHT22;43583;53.132;6.574;2023-02-28T09:25:36;8.40;99.90
57753;DHT22;43583;53.132;6.574;2023-02-28T09:28:03;9.40;99.90
57753;DHT22;43583;53.132;6.574;2023-02-28T09:30:29;10.30;99.90
57753;DHT22;43583;53.132;6.574;2023-02-28T09:32:55;10.90;99.90
57753;DHT22;43583;53.132;6.574;2023-02-28T09:35:22;11.20;99.90
57753;DHT22;43583;53.132;6.574;2023-02-28T09:37:49;11.70;99.90
57753;DHT22;43583;53.132;6.574;2023-02-28T09:40:17;12.00;99.90
57753;DHT22;43583;53.132;6.574;2023-02-28T09:42:46;12.30;99.90
57753;DHT22;43583;53.132;6.574;2023-02-28T09:45:29;12.80;99.90
57753;DHT22;43583;53.132;6.574;2023-02-28T09:47:59;13.20;99.90
57753;DHT22;43583;53.132;6.574;2023-02-28T09:50:36;13.10;99.90
57753;DHT22;43583;53.132;6.574;2023-02-28T09:53:10;13.30;99.90
57753;DHT22;43583;53.132;6.574;2023-02-28T09:55:51;13.20;99.90
57753;DHT22;43583;53.132;6.574;2023-02-28T10:03:58;12.20;99.90
57753;DHT22;43583;53.132;6.574;2023-02-28T10:06:29;11.60;99.90
57753;DHT22;43583;53.132;6.574;2023-02-28T10:09:07;11.20;99.90
57753;DHT22;43583;53.132;6.574;2023-02-28T10:11:36;10.90;99.90
57753;DHT22;43583;53.132;6.574;2023-02-28T10:14:16;10.40;99.90
57753;DHT22;43583;53.132;6.574;2023-02-28T10:19:39;9.80;99.90
57753;DHT22;43583;53.132;6.574;2023-02-28T10:27:17;9.20;99.90
57753;DHT22;43583;53.132;6.574;2023-02-28T10:29:47;9.10;99.90
57753;DHT22;43583;53.132;6.574;2023-02-28T10:32:17;9.00;99.90
57753;DHT22;43583;53.132;6.574;2023-02-28T10:34:43;9.00;99.90
57753;DHT22;43583;53.132;6.574;2023-02-28T10:37:10;8.90;99.90
57753;DHT22;43583;53.132;6.574;2023-02-28T10:39:46;8.90;99.90
57753;DHT22;43583;53.132;6.574;2023-02-28T10:42:27;8.90;99.90
57753;DHT22;43583;53.132;6.574;2023-02-28T10:45:16;8.80;99.90
57753;DHT22;43583;53.132;6.574;2023-02-28T10:48:43;8.80;99.90
57753;DHT22;43583;53.132;6.574;2023-02-28T11:03:55;8.60;99.90
57753;DHT22;43583;53.132;6.574;2023-02-28T11:06:34;8.70;99.90
57753;DHT22;43583;53.132;6.574;2023-02-28T11:09:02;8.70;99.90
57753;DHT22;43583;53.132;6.574;2023-02-28T11:11:30;8.70;99.90
57753;DHT22;43583;53.132;6.574;2023-02-28T11:14:23;8.60;99.90
57753;DHT22;43583;53.132;6.574;2023-02-28T11:16:49;8.50;99.90
57753;DHT22;43583;53.132;6.574;2023-02-28T11:19:39;8.40;99.90
57753;DHT22;43583;53.132;6.574;2023-02-28T11:22:05;8.40;99.90
57753;DHT22;43583;53.132;6.574;2023-02-28T11:24:36;8.40;99.90
57753;DHT22;43583;53.132;6.574;2023-02-28T11:27:03;8.40;99.90
57753;DHT22;43583;53.132;6.574;2023-02-28T11:29:31;8.40;99.90
57753;DHT22;43583;53.132;6.574;2023-02-28T11:34:31;8.50;99.90
57753;DHT22;43583;53.132;6.574;2023-02-28T11:36:59;8.50;99.90
57753;DHT22;43583;53.132;6.574;2023-02-28T11:39:27;8.50;99.90
57753;DHT22;43583;53.132;6.574;2023-02-28T11:45:00;8.50;99.90
57753;DHT22;43583;53.132;6.574;2023-02-28T11:55:51;8.70;99.90
57753;DHT22;43583;53.132;6.574;2023-02-28T12:01:25;8.80;99.90
57753;DHT22;43583;53.132;6.574;2023-02-28T12:10:04;8.30;99.90
57753;DHT22;43583;53.132;6.574;2023-02-28T12:15:32;8.30;99.90
57753;DHT22;43583;53.132;6.574;2023-02-28T12:26:53;7.60;99.90
57753;DHT22;43583;53.132;6.574;2023-02-28T12:29:28;7.50;99.90
57753;DHT22;43583;53.132;6.574;2023-02-28T12:32:14;7.50;99.90
57753;DHT22;43583;53.132;6.574;2023-02-28T12:34:50;7.60;99.90
57753;DHT22;43583;53.132;6.574;2023-02-28T12:37:41;7.60;99.90
57753;DHT22;43583;53.132;6.574;2023-02-28T12:40:18;7.70;99.90
57753;DHT22;43583;53.132;6.574;2023-02-28T12:43:05;7.80;99.90
57753;DHT22;43583;53.132;6.574;2023-02-28T12:45:52;7.80;99.90
57753;DHT22;43583;53.132;6.574;2023-02-28T12:48:47;7.90;99.90
57753;DHT22;43583;53.132;6.574;2023-02-28T12:51:12;8.00;99.90
57753;DHT22;43583;53.132;6.574;2023-02-28T12:54:11;8.00;99.90
57753;DHT22;43583;53.132;6.574;2023-02-28T12:56:58;8.10;99.90
57753;DHT22;43583;53.132;6.574;2023-02-28T12:59:50;8.30;99.90
57753;DHT22;43583;53.132;6.574;2023-02-28T13:05:46;8.50;99.90
57753;DHT22;43583;53.132;6.574;2023-02-28T13:11:01;8.90;99.90
57753;DHT22;43583;53.132;6.574;2023-02-28T13:13:28;9.00;99.90
57753;DHT22;43583;53.132;6.574;2023-02-28T13:16:03;8.90;99.90
57753;DHT22;43583;53.132;6.574;2023-02-28T13:20:57;8.80;99.90
57753;DHT22;43583;53.132;6.574;2023-02-28T13:23:41;8.80;99.90
57753;DHT22;43583;53.132;6.574;2023-02-28T13:34:32;8.50;99.90
57753;DHT22;43583;53.132;6.574;2023-02-28T13:39:51;8.50;99.80
57753;DHT22;43583;53.132;6.574;2023-02-28T13:47:39;8.70;99.90
57753;DHT22;43583;53.132;6.574;2023-02-28T13:50:27;8.70;99.90
57753;DHT22;43583;53.132;6.574;2023-02-28T13:56:03;8.60;99.40
57753;DHT22;43583;53.132;6.574;2023-02-28T13:58:53;8.60;99.90
57753;DHT22;43583;53.132;6.574;2023-02-28T14:01:51;8.40;99.60
57753;DHT22;43583;53.132;6.574;2023-02-28T14:04:39;8.40;99.20
57753;DHT22;43583;53.132;6.574;2023-02-28T14:07:07;8.40;99.70
57753;DHT22;43583;53.132;6.574;2023-02-28T14:09:40;8.40;99.20
57753;DHT22;43583;53.132;6.574;2023-02-28T14:17:55;8.50;98.60
57753;DHT22;43583;53.132;6.574;2023-02-28T14:20:27;8.60;98.80
57753;DHT22;43583;53.132;6.574;2023-02-28T14:28:53;8.20;98.10
57753;DHT22;43583;53.132;6.574;2023-02-28T14:31:40;8.00;98.60
57753;DHT22;43583;53.132;6.574;2023-02-28T14:34:40;7.90;98.80
57753;DHT22;43583;53.132;6.574;2023-02-28T14:37:16;7.70;98.50
57753;DHT22;43583;53.132;6.574;2023-02-28T14:39:45;7.60;99.20
57753;DHT22;43583;53.132;6.574;2023-02-28T14:42:31;7.50;99.10
57753;DHT22;43583;53.132;6.574;2023-02-28T14:44:58;7.40;98.90
57753;DHT22;43583;53.132;6.574;2023-02-28T14:47:28;7.30;99.50
57753;DHT22;43583;53.132;6.574;2023-02-28T14:49:56;7.20;99.80
57753;DHT22;43583;53.132;6.574;2023-02-28T14:52:28;7.10;99.50
57753;DHT22;43583;53.132;6.574;2023-02-28T14:54:57;6.90;99.80
57753;DHT22;43583;53.132;6.574;2023-02-28T14:57:32;6.80;99.90
57753;DHT22;43583;53.132;6.574;2023-02-28T15:02:43;6.80;99.80
57753;DHT22;43583;53.132;6.574;2023-02-28T15:07:47;6.90;99.90
57753;DHT22;43583;53.132;6.574;2023-02-28T15:12:55;7.10;99.60
57753;DHT22;43583;53.132;6.574;2023-02-28T15:15:33;7.10;99.70
57753;DHT22;43583;53.132;6.574;2023-02-28T15:18:03;7.10;99.40
57753;DHT22;43583;53.132;6.574;2023-02-28T15:20:32;7.20;99.50
57753;DHT22;43583;53.132;6.574;2023-02-28T15:22:58;7.20;99.30
57753;DHT22;43583;53.132;6.574;2023-02-28T15:25:25;7.20;98.30
57753;DHT22;43583;53.132;6.574;2023-02-28T15:27:53;7.10;98.40
57753;DHT22;43583;53.132;6.574;2023-02-28T15:30:32;7.10;98.40
57753;DHT22;43583;53.132;6.574;2023-02-28T15:33:05;7.00;98.40
57753;DHT22;43583;53.132;6.574;2023-02-28T15:35:32;7.00;97.70
57753;DHT22;43583;53.132;6.574;2023-02-28T15:38:16;6.90;97.80
57753;DHT22;43583;53.132;6.574;2023-02-28T15:40:44;6.80;98.00
57753;DHT22;43583;53.132;6.574;2023-02-28T15:43:14;6.70;98.10
57753;DHT22;43583;53.132;6.574;2023-02-28T15:46:01;6.60;98.50
57753;DHT22;43583;53.132;6.574;2023-02-28T15:48:28;6.50;99.00
57753;DHT22;43583;53.132;6.574;2023-02-28T15:51:07;6.40;99.30
57753;DHT22;43583;53.132;6.574;2023-02-28T15:53:54;6.30;99.50
57753;DHT22;43583;53.132;6.574;2023-02-28T15:56:44;6.30;99.90
57753;DHT22;43583;53.132;6.574;2023-02-28T15:59:17;6.30;99.90
57753;DHT22;43583;53.132;6.574;2023-02-28T16:01:43;6.40;99.80
57753;DHT22;43583;53.132;6.574;2023-02-28T16:04:19;6.30;99.70
57753;DHT22;43583;53.132;6.574;2023-02-28T16:09:13;6.40;99.70
57753;DHT22;43583;53.132;6.574;2023-02-28T16:11:49;6.30;99.70
57753;DHT22;43583;53.132;6.574;2023-02-28T16:14:20;6.40;99.80
57753;DHT22;43583;53.132;6.574;2023-02-28T16:16:56;6.30;99.80
57753;DHT22;43583;53.132;6.574;2023-02-28T16:19:22;6.30;99.90
57753;DHT22;43583;53.132;6.574;2023-02-28T16:21:48;6.20;99.90
57753;DHT22;43583;53.132;6.574;2023-02-28T16:24:14;6.20;99.90
57753;DHT22;43583;53.132;6.574;2023-02-28T16:26:40;6.10;99.90
57753;DHT22;43583;53.132;6.574;2023-02-28T16:29:08;6.10;99.90
57753;DHT22;43583;53.132;6.574;2023-02-28T16:31:37;6.00;99.90
57753;DHT22;43583;53.132;6.574;2023-02-28T16:34:03;6.00;99.90
57753;DHT22;43583;53.132;6.574;2023-02-28T16:36:30;6.00;99.90
57753;DHT22;43583;53.132;6.574;2023-02-28T16:38:55;5.90;99.90
57753;DHT22;43583;53.132;6.574;2023-02-28T16:41:24;5.80;99.90
57753;DHT22;43583;53.132;6.574;2023-02-28T16:43:52;5.80;99.90
57753;DHT22;43583;53.132;6.574;2023-02-28T16:46:20;5.70;99.90
57753;DHT22;43583;53.132;6.574;2023-02-28T16:48:46;5.50;99.90
57753;DHT22;43583;53.132;6.574;2023-02-28T16:51:17;5.40;99.90
57753;DHT22;43583;53.132;6.574;2023-02-28T16:53:44;5.30;99.90
57753;DHT22;43583;53.132;6.574;2023-02-28T16:56:18;5.20;99.90
57753;DHT22;43583;53.132;6.574;2023-02-28T16:58:44;5.10;99.90
57753;DHT22;43583;53.132;6.574;2023-02-28T17:01:10;5.00;99.90
57753;DHT22;43583;53.132;6.574;2023-02-28T17:03:36;4.90;99.90
57753;DHT22;43583;53.132;6.574;2023-02-28T17:06:03;4.80;99.90
57753;DHT22;43583;53.132;6.574;2023-02-28T17:08:30;4.70;99.90
57753;DHT22;43583;53.132;6.574;2023-02-28T17:10:57;4.60;99.90
57753;DHT22;43583;53.132;6.574;2023-02-28T17:13:23;4.50;99.90
57753;DHT22;43583;53.132;6.574;2023-02-28T17:15:49;4.40;99.90
57753;DHT22;43583;53.132;6.574;2023-02-28T17:18:17;4.30;99.90
57753;DHT22;43583;53.132;6.574;2023-02-28T17:20:45;4.10;99.90
57753;DHT22;43583;53.132;6.574;2023-02-28T17:23:11;4.00;99.90
57753;DHT22;43583;53.132;6.574;2023-02-28T17:25:37;3.90;99.90
57753;DHT22;43583;53.132;6.574;2023-02-28T17:28:02;3.80;99.90
57753;DHT22;43583;53.132;6.574;2023-02-28T17:30:28;3.70;99.90
57753;DHT22;43583;53.132;6.574;2023-02-28T17:32:55;3.60;99.90
57753;DHT22;43583;53.132;6.574;2023-02-28T17:35:21;3.60;99.90
57753;DHT22;43583;53.132;6.574;2023-02-28T17:37:47;3.50;99.90
57753;DHT22;43583;53.132;6.574;2023-02-28T17:40:19;3.40;99.90
57753;DHT22;43583;53.132;6.574;2023-02-28T17:42:45;3.30;99.90
57753;DHT22;43583;53.132;6.574;2023-02-28T17:45:12;3.20;99.90
57753;DHT22;43583;53.132;6.574;2023-02-28T17:47:38;3.10;99.90
57753;DHT22;43583;53.132;6.574;2023-02-28T17:50:04;3.00;99.90
57753;DHT22;43583;53.132;6.574;2023-02-28T17:52:30;3.00;99.90
57753;DHT22;43583;53.132;6.574;2023-02-28T17:54:56;2.90;99.90
57753;DHT22;43583;53.132;6.574;2023-02-28T17:57:22;2.80;99.90
57753;DHT22;43583;53.132;6.574;2023-02-28T17:59:47;2.70;99.90
57753;DHT22;43583;53.132;6.574;2023-02-28T18:02:13;2.60;99.90
57753;DHT22;43583;53.132;6.574;2023-02-28T18:04:39;2.60;99.90
57753;DHT22;43583;53.132;6.574;2023-02-28T18:07:06;2.60;99.90
57753;DHT22;43583;53.132;6.574;2023-02-28T18:09:34;2.60;99.90
57753;DHT22;43583;53.132;6.574;2023-02-28T18:12:00;2.50;99.90
57753;DHT22;43583;53.132;6.574;2023-02-28T18:14:26;2.50;99.90
57753;DHT22;43583;53.132;6.574;2023-02-28T18:16:53;2.40;99.90